Time;durP1;ratioP1;P1;durP2;ratioP2;P2;SDS_P1;SDS_P2;PMS_P1;PMS_P2;Temp;Humidity;BMP_temperature;BMP_pressure;BME280_temperature;BME280_humidity;BME280_pressure;Samples;Min_cycle;Max_cycle;Signal;HPM_P1;HPM_P2
2022/08/31 00:04:56;;;;;;;;;;;18.80;64.10;;;;;;5008639;28;19984;-81
2022/08/31 00:07:22;;;;;;;;;;;18.80;64.30;;;;;;5013959;28;19914;-81
2022/08/31 00:09:48;;;;;;;;;;;18.80;64.40;;;;;;5014730;28;19918;-81
2022/08/31 00:12:14;;;;;;;;;;;18.60;65.40;;;;;;5012010;28;19920;-80
2022/08/31 00:14:39;;;;;;;;;;;18.80;64.70;;;;;;5015378;28;19929;-81
2022/08/31 00:17:04;;;;;;;;;;;18.60;65.40;;;;;;5013882;28;19924;-80
2022/08/31 00:19:30;;;;;;;;;;;18.50;66.10;;;;;;5005814;28;19928;-80
2022/08/31 00:21:55;;;;;;;;;;;18.60;66.00;;;;;;5012936;28;19941;-80
2022/08/31 00:24:21;;;;;;;;;;;18.50;66.50;;;;;;5011586;28;20469;-80
2022/08/31 00:26:46;;;;;;;;;;;18.50;66.70;;;;;;5015442;28;19913;-80
2022/08/31 00:29:12;;;;;;;;;;;18.50;66.70;;;;;;5005223;28;19913;-80
2022/08/31 00:31:38;;;;;;;;;;;18.70;66.30;;;;;;5012165;28;19913;-80
2022/08/31 00:34:03;;;;;;;;;;;18.60;66.40;;;;;;5015373;28;20355;-81
2022/08/31 00:36:29;;;;;;;;;;;18.60;66.70;;;;;;5012668;28;19976;-80
2022/08/31 00:38:55;;;;;;;;;;;18.50;67.00;;;;;;5012537;28;20016;-80
2022/08/31 00:41:22;;;;;;;;;;;18.40;68.00;;;;;;5013070;28;19914;-80
2022/08/31 00:43:58;;;;;;;;;;;18.50;67.30;;;;;;5029440;28;19929;-80
2022/08/31 00:46:29;;;;;;;;;;;18.60;67.10;;;;;;5029487;28;19951;-80
2022/08/31 00:48:58;;;;;;;;;;;18.60;67.10;;;;;;5010316;28;20388;-80
2022/08/31 00:51:23;;;;;;;;;;;18.60;67.20;;;;;;5009797;28;19914;-80
2022/08/31 00:53:50;;;;;;;;;;;18.50;67.70;;;;;;5010926;28;20457;-80
2022/08/31 00:56:15;;;;;;;;;;;18.40;68.20;;;;;;5013558;28;19925;-80
2022/08/31 00:58:42;;;;;;;;;;;18.40;68.00;;;;;;5009480;28;19921;-80
2022/08/31 01:01:08;;;;;;;;;;;18.50;67.90;;;;;;5010355;28;19960;-80
2022/08/31 01:03:34;;;;;;;;;;;18.50;67.60;;;;;;5011849;28;20012;-80
2022/08/31 01:05:59;;;;;;;;;;;18.40;68.10;;;;;;5008695;28;20004;-80
2022/08/31 01:08:25;;;;;;;;;;;18.40;68.20;;;;;;5005917;28;19971;-80
2022/08/31 01:10:50;;;;;;;;;;;18.30;68.70;;;;;;5008501;28;19913;-80
2022/08/31 01:13:16;;;;;;;;;;;18.30;68.60;;;;;;5007926;28;19925;-80
2022/08/31 01:15:46;;;;;;;;;;;18.40;68.30;;;;;;5008520;28;19921;-79
2022/08/31 01:18:11;;;;;;;;;;;18.20;69.00;;;;;;5003175;28;20331;-80
2022/08/31 01:20:55;;;;;;;;;;;18.10;69.50;;;;;;5026046;28;19914;-80
2022/08/31 01:23:24;;;;;;;;;;;18.40;68.60;;;;;;5008646;28;20371;-80
2022/08/31 01:25:50;;;;;;;;;;;18.30;68.90;;;;;;5010361;28;20008;-80
2022/08/31 01:28:15;;;;;;;;;;;18.30;68.80;;;;;;5011995;28;20383;-80
2022/08/31 01:30:41;;;;;;;;;;;18.50;68.60;;;;;;5025711;28;20011;-80
2022/08/31 01:33:08;;;;;;;;;;;18.40;68.70;;;;;;5010399;28;19956;-80
2022/08/31 01:35:34;;;;;;;;;;;18.20;69.50;;;;;;5005153;28;20311;-79
2022/08/31 01:38:00;;;;;;;;;;;18.40;68.70;;;;;;5007176;28;20358;-80
2022/08/31 01:40:30;;;;;;;;;;;18.40;68.80;;;;;;5005967;28;20379;-80
2022/08/31 01:42:56;;;;;;;;;;;18.40;68.60;;;;;;5009867;28;19991;-80
2022/08/31 01:45:21;;;;;;;;;;;18.40;69.00;;;;;;5010624;28;20356;-79
2022/08/31 01:47:47;;;;;;;;;;;18.40;69.00;;;;;;5007746;28;20048;-80
2022/08/31 01:50:12;;;;;;;;;;;18.30;69.60;;;;;;5011994;28;20369;-80
2022/08/31 01:52:38;;;;;;;;;;;18.20;69.30;;;;;;5013370;28;19956;-80
2022/08/31 01:55:05;;;;;;;;;;;18.30;69.10;;;;;;5024449;28;19921;-80
2022/08/31 01:57:30;;;;;;;;;;;18.10;70.10;;;;;;5008175;28;19920;-80
2022/08/31 01:59:58;;;;;;;;;;;18.30;69.40;;;;;;5018116;28;19913;-80
2022/08/31 02:02:23;;;;;;;;;;;18.40;68.80;;;;;;5007657;28;19924;-80
2022/08/31 02:04:49;;;;;;;;;;;18.50;68.80;;;;;;5008944;28;19921;-80
2022/08/31 02:07:14;;;;;;;;;;;18.30;69.00;;;;;;5027961;28;19922;-79
2022/08/31 02:09:39;;;;;;;;;;;18.30;69.10;;;;;;5020643;28;19917;-80
2022/08/31 02:12:05;;;;;;;;;;;18.30;69.50;;;;;;5013408;28;19917;-80
2022/08/31 02:14:30;;;;;;;;;;;18.30;69.60;;;;;;5010458;28;19914;-80
2022/08/31 02:16:56;;;;;;;;;;;18.40;68.90;;;;;;5008092;28;19921;-80
2022/08/31 02:19:21;;;;;;;;;;;18.20;69.70;;;;;;5010272;28;19917;-80
2022/08/31 02:21:47;;;;;;;;;;;18.10;70.10;;;;;;5009438;28;19972;-80
2022/08/31 02:24:12;;;;;;;;;;;18.00;70.70;;;;;;5008907;28;19983;-80
2022/08/31 02:26:38;;;;;;;;;;;18.20;69.70;;;;;;5013848;28;19973;-79
2022/08/31 02:29:06;;;;;;;;;;;18.10;69.90;;;;;;5011090;28;20351;-80
2022/08/31 02:31:31;;;;;;;;;;;18.20;69.50;;;;;;5006216;28;19921;-80
2022/08/31 02:33:56;;;;;;;;;;;18.00;70.60;;;;;;5007933;28;20028;-79
2022/08/31 02:36:22;;;;;;;;;;;18.00;69.90;;;;;;5012169;28;19945;-79
2022/08/31 02:38:47;;;;;;;;;;;18.00;70.50;;;;;;5008502;28;19917;-79
2022/08/31 02:41:14;;;;;;;;;;;17.90;70.50;;;;;;5009919;28;19968;-80
2022/08/31 02:43:40;;;;;;;;;;;18.10;69.80;;;;;;5007977;28;20013;-80
2022/08/31 02:46:05;;;;;;;;;;;18.10;70.10;;;;;;5007886;28;19914;-80
2022/08/31 02:48:31;;;;;;;;;;;18.00;70.40;;;;;;5007176;28;19920;-80
2022/08/31 02:51:01;;;;;;;;;;;17.70;71.20;;;;;;5009403;28;19935;-80
2022/08/31 02:53:26;;;;;;;;;;;17.60;71.80;;;;;;5013998;28;19913;-79
2022/08/31 02:55:51;;;;;;;;;;;17.60;72.20;;;;;;5033575;28;19980;-79
2022/08/31 02:58:17;;;;;;;;;;;17.60;72.00;;;;;;5022203;28;19917;-80
2022/08/31 03:00:44;;;;;;;;;;;17.50;72.00;;;;;;5010064;28;19924;-80
2022/08/31 03:03:09;;;;;;;;;;;17.60;71.90;;;;;;5007374;28;20320;-80
2022/08/31 03:05:34;;;;;;;;;;;17.80;71.30;;;;;;5013621;28;19932;-80
2022/08/31 03:08:00;;;;;;;;;;;17.60;71.70;;;;;;5022453;28;20277;-80
2022/08/31 03:10:25;;;;;;;;;;;17.50;72.10;;;;;;5007390;28;19918;-80
2022/08/31 03:12:51;;;;;;;;;;;17.60;72.30;;;;;;5007292;28;19914;-80
2022/08/31 03:15:18;;;;;;;;;;;17.80;71.10;;;;;;5008398;28;19913;-80
2022/08/31 03:17:43;;;;;;;;;;;17.60;71.50;;;;;;5008105;28;19924;-80
2022/08/31 03:20:10;;;;;;;;;;;17.60;72.10;;;;;;5008144;28;19913;-80
2022/08/31 03:22:36;;;;;;;;;;;17.80;71.40;;;;;;5026558;22;20319;-79
2022/08/31 03:25:01;;;;;;;;;;;17.80;71.30;;;;;;5006209;28;19913;-79
2022/08/31 03:27:30;;;;;;;;;;;17.70;71.70;;;;;;5000222;28;20652;-79
2022/08/31 03:29:55;;;;;;;;;;;18.00;70.30;;;;;;5003360;28;20419;-79
2022/08/31 03:32:22;;;;;;;;;;;18.00;70.20;;;;;;4993241;28;19922;-79
2022/08/31 03:34:51;;;;;;;;;;;18.00;70.10;;;;;;5001073;28;20321;-79
2022/08/31 03:37:16;;;;;;;;;;;17.80;70.80;;;;;;4986170;28;20021;-80
2022/08/31 03:39:42;;;;;;;;;;;17.80;70.90;;;;;;5001524;28;20329;-79
2022/08/31 03:42:07;;;;;;;;;;;18.00;70.40;;;;;;4991893;28;19921;-79
2022/08/31 03:44:33;;;;;;;;;;;18.00;70.20;;;;;;4987959;28;19918;-78
2022/08/31 03:46:58;;;;;;;;;;;17.80;70.50;;;;;;4988845;28;20359;-79
2022/08/31 03:49:24;;;;;;;;;;;17.70;71.40;;;;;;4992133;28;19913;-79
2022/08/31 03:51:50;;;;;;;;;;;17.80;71.40;;;;;;4996592;28;19914;-79
2022/08/31 03:54:18;;;;;;;;;;;17.90;70.40;;;;;;4990243;28;19918;-79
2022/08/31 03:56:45;;;;;;;;;;;18.00;69.90;;;;;;4993687;28;19921;-79
2022/08/31 03:59:11;;;;;;;;;;;18.00;70.00;;;;;;4991180;28;19914;-79
2022/08/31 04:01:36;;;;;;;;;;;17.90;70.20;;;;;;4988672;28;20296;-79
2022/08/31 04:04:02;;;;;;;;;;;17.90;70.40;;;;;;4991015;28;20276;-79
2022/08/31 04:06:27;;;;;;;;;;;18.00;69.70;;;;;;4987368;28;19917;-79
2022/08/31 04:08:54;;;;;;;;;;;17.80;69.90;;;;;;4995411;28;19913;-78
2022/08/31 04:11:19;;;;;;;;;;;17.70;70.60;;;;;;5014880;28;19936;-79
2022/08/31 04:13:45;;;;;;;;;;;17.60;71.00;;;;;;4993745;28;20353;-79
2022/08/31 04:16:12;;;;;;;;;;;17.50;71.20;;;;;;4992032;28;19948;-78
2022/08/31 04:18:38;;;;;;;;;;;17.60;70.80;;;;;;4991694;28;19921;-79
2022/08/31 04:21:04;;;;;;;;;;;17.60;71.00;;;;;;4995364;28;20343;-79
2022/08/31 04:23:29;;;;;;;;;;;17.50;71.20;;;;;;4998399;28;19972;-80
2022/08/31 04:25:56;;;;;;;;;;;17.20;72.00;;;;;;4991599;28;20301;-79
2022/08/31 04:28:22;;;;;;;;;;;17.30;72.30;;;;;;4992067;28;19914;-79
2022/08/31 04:30:48;;;;;;;;;;;17.30;72.00;;;;;;4986728;28;19924;-79
2022/08/31 04:33:13;;;;;;;;;;;17.40;71.20;;;;;;4993704;28;20004;-80
2022/08/31 04:35:39;;;;;;;;;;;17.50;71.20;;;;;;4992572;28;20318;-79
2022/08/31 04:38:05;;;;;;;;;;;17.60;70.40;;;;;;4994323;28;19921;-78
2022/08/31 04:40:30;;;;;;;;;;;17.40;71.10;;;;;;4989056;28;19921;-79
2022/08/31 04:42:56;;;;;;;;;;;17.30;71.70;;;;;;4995411;28;20285;-79
2022/08/31 04:45:23;;;;;;;;;;;17.10;72.10;;;;;;4993217;28;20320;-79
2022/08/31 04:47:48;;;;;;;;;;;17.30;71.30;;;;;;4991574;28;19925;-79
2022/08/31 04:50:15;;;;;;;;;;;17.30;71.00;;;;;;4994109;28;19920;-78
2022/08/31 04:52:41;;;;;;;;;;;17.20;71.60;;;;;;4990697;28;19988;-77
2022/08/31 04:55:07;;;;;;;;;;;17.20;71.10;;;;;;5007876;28;19972;-79
2022/08/31 04:57:34;;;;;;;;;;;17.10;71.30;;;;;;4989910;28;19957;-79
2022/08/31 04:59:59;;;;;;;;;;;17.10;71.50;;;;;;4990947;28;20328;-79
2022/08/31 05:02:25;;;;;;;;;;;16.90;71.90;;;;;;5002215;28;19914;-80
2022/08/31 05:04:50;;;;;;;;;;;17.10;71.20;;;;;;5006157;28;19967;-80
2022/08/31 05:07:16;;;;;;;;;;;17.10;70.90;;;;;;4987093;28;19917;-79
2022/08/31 05:09:41;;;;;;;;;;;17.00;71.10;;;;;;4984563;28;19920;-80
2022/08/31 05:12:07;;;;;;;;;;;16.90;71.30;;;;;;4988941;28;19949;-80
2022/08/31 05:14:34;;;;;;;;;;;17.00;70.80;;;;;;4986049;28;19964;-79
2022/08/31 05:17:00;;;;;;;;;;;17.00;70.70;;;;;;4988586;28;19959;-80
2022/08/31 05:19:25;;;;;;;;;;;16.90;71.10;;;;;;4992034;28;20052;-79
2022/08/31 05:21:50;;;;;;;;;;;16.80;71.40;;;;;;4991280;28;19992;-79
2022/08/31 05:24:21;;;;;;;;;;;16.80;71.10;;;;;;5000448;28;19922;-79
2022/08/31 05:26:48;;;;;;;;;;;16.70;71.80;;;;;;5000096;28;19964;-80
2022/08/31 05:29:15;;;;;;;;;;;16.60;71.70;;;;;;5000830;28;20444;-80
2022/08/31 05:31:41;;;;;;;;;;;16.90;71.20;;;;;;4992466;28;19914;-82
2022/08/31 05:34:06;;;;;;;;;;;16.80;71.20;;;;;;4990612;28;19933;-83
2022/08/31 05:36:32;;;;;;;;;;;16.80;71.30;;;;;;4994841;28;20008;-78
2022/08/31 05:38:59;;;;;;;;;;;16.70;71.70;;;;;;4999921;28;19921;-80
2022/08/31 05:41:25;;;;;;;;;;;16.90;71.30;;;;;;4998128;28;20350;-79
2022/08/31 05:43:50;;;;;;;;;;;16.90;71.10;;;;;;5000562;28;19957;-79
2022/08/31 05:46:16;;;;;;;;;;;16.80;71.60;;;;;;4994354;28;20495;-79
2022/08/31 05:48:42;;;;;;;;;;;17.00;70.60;;;;;;4992303;28;20005;-78
2022/08/31 05:51:09;;;;;;;;;;;16.90;71.50;;;;;;4993545;28;19921;-82
2022/08/31 05:53:35;;;;;;;;;;;16.80;71.70;;;;;;4995050;28;19924;-82
2022/08/31 05:56:01;;;;;;;;;;;16.90;71.60;;;;;;4999422;28;20311;-81
2022/08/31 05:58:28;;;;;;;;;;;17.20;70.30;;;;;;4992772;28;19917;-81
2022/08/31 06:00:53;;;;;;;;;;;17.30;69.70;;;;;;4990490;28;20008;-81
2022/08/31 06:03:19;;;;;;;;;;;17.30;70.10;;;;;;4991763;28;19996;-80
2022/08/31 06:05:44;;;;;;;;;;;17.20;70.50;;;;;;4992036;28;19969;-81
2022/08/31 06:08:10;;;;;;;;;;;17.30;69.60;;;;;;4991029;28;19910;-81
2022/08/31 06:10:36;;;;;;;;;;;17.50;69.50;;;;;;4990996;28;19924;-82
2022/08/31 06:13:03;;;;;;;;;;;17.40;69.70;;;;;;4992237;28;19985;-82
2022/08/31 06:15:28;;;;;;;;;;;17.00;70.90;;;;;;4991820;28;19946;-82
2022/08/31 06:17:54;;;;;;;;;;;17.10;70.70;;;;;;4991571;28;20367;-81
2022/08/31 06:20:19;;;;;;;;;;;17.20;70.40;;;;;;4993134;28;19914;-81
2022/08/31 06:22:45;;;;;;;;;;;17.10;70.80;;;;;;4995242;28;20385;-81
2022/08/31 06:25:16;;;;;;;;;;;17.20;70.60;;;;;;4994003;28;19914;-82
2022/08/31 06:27:42;;;;;;;;;;;17.30;70.60;;;;;;4991528;28;19965;-82
2022/08/31 06:30:08;;;;;;;;;;;17.50;69.50;;;;;;4993630;28;19910;-83
2022/08/31 06:32:33;;;;;;;;;;;17.20;70.90;;;;;;4994489;28;19921;-83
2022/08/31 06:34:59;;;;;;;;;;;17.30;70.40;;;;;;4995026;28;20005;-83
2022/08/31 06:37:24;;;;;;;;;;;17.30;70.70;;;;;;4992367;28;19918;-82
2022/08/31 06:39:50;;;;;;;;;;;17.30;71.20;;;;;;4991244;28;20351;-82
2022/08/31 06:42:16;;;;;;;;;;;17.30;70.60;;;;;;4992630;28;20357;-83
2022/08/31 06:44:42;;;;;;;;;;;17.40;69.80;;;;;;4989816;28;20026;-82
2022/08/31 06:47:07;;;;;;;;;;;17.60;69.30;;;;;;4989117;28;20458;-83
2022/08/31 06:49:32;;;;;;;;;;;17.50;70.50;;;;;;4993791;28;19924;-82
2022/08/31 06:51:59;;;;;;;;;;;17.50;70.50;;;;;;4996905;28;20020;-82
2022/08/31 06:54:25;;;;;;;;;;;17.60;69.80;;;;;;4995221;28;19910;-83
2022/08/31 06:56:50;;;;;;;;;;;17.60;69.80;;;;;;4994245;28;19918;-79
2022/08/31 06:59:16;;;;;;;;;;;17.70;69.60;;;;;;4988174;28;19918;-79
2022/08/31 07:01:41;;;;;;;;;;;17.70;69.80;;;;;;4992322;28;19917;-81
2022/08/31 07:04:08;;;;;;;;;;;17.60;70.10;;;;;;4993760;28;20357;-81
2022/08/31 07:06:34;;;;;;;;;;;17.90;68.80;;;;;;4993763;28;20519;-80
2022/08/31 07:09:02;;;;;;;;;;;18.00;68.80;;;;;;4991044;28;20275;-81
2022/08/31 07:11:35;;;;;;;;;;;17.80;69.20;;;;;;4992693;28;19910;-80
2022/08/31 07:14:02;;;;;;;;;;;17.90;69.20;;;;;;5008955;28;19942;-80
2022/08/31 07:16:28;;;;;;;;;;;17.60;70.10;;;;;;4993404;28;19918;-80
2022/08/31 07:18:57;;;;;;;;;;;17.60;70.70;;;;;;4991701;28;21299;-80
2022/08/31 07:21:24;;;;;;;;;;;17.60;71.00;;;;;;4993183;28;19914;-80
2022/08/31 07:23:50;;;;;;;;;;;17.90;70.40;;;;;;4993022;28;19921;-80
2022/08/31 07:26:26;;;;;;;;;;;18.00;69.90;;;;;;4992234;28;19914;-79
2022/08/31 07:28:53;;;;;;;;;;;17.70;70.70;;;;;;4991477;28;19921;-79
2022/08/31 07:31:21;;;;;;;;;;;18.00;70.40;;;;;;4993782;28;19941;-80
2022/08/31 07:33:48;;;;;;;;;;;17.80;70.60;;;;;;4991824;28;19910;-80
2022/08/31 07:36:14;;;;;;;;;;;17.70;70.80;;;;;;4991468;28;19949;-80
2022/08/31 07:44:10;;;;;;;;;;;18.10;69.80;;;;;;4993592;28;20451;-80
2022/08/31 07:46:35;;;;;;;;;;;18.20;70.20;;;;;;4992406;28;19983;-79
2022/08/31 07:49:01;;;;;;;;;;;18.40;68.80;;;;;;4991007;28;20376;-80
2022/08/31 07:51:27;;;;;;;;;;;18.40;69.80;;;;;;4993231;28;19910;-79
2022/08/31 07:53:53;;;;;;;;;;;18.50;69.30;;;;;;4992229;28;20369;-82
2022/08/31 07:56:19;;;;;;;;;;;18.60;68.60;;;;;;4990875;28;19984;-82
2022/08/31 07:58:48;;;;;;;;;;;18.70;67.80;;;;;;4991788;28;20423;-82
2022/08/31 08:01:17;;;;;;;;;;;18.60;68.70;;;;;;4992875;28;19921;-82
2022/08/31 08:03:43;;;;;;;;;;;18.30;69.30;;;;;;4991185;28;19976;-83
2022/08/31 08:06:14;;;;;;;;;;;18.30;70.00;;;;;;4991724;28;19914;-82
2022/08/31 08:08:41;;;;;;;;;;;18.50;69.30;;;;;;4992226;28;19914;-82
2022/08/31 08:11:07;;;;;;;;;;;18.50;68.80;;;;;;4997229;28;19921;-81
2022/08/31 08:13:34;;;;;;;;;;;18.80;67.50;;;;;;4996893;28;19918;-81
2022/08/31 08:15:59;;;;;;;;;;;18.70;67.90;;;;;;4996080;28;19981;-83
2022/08/31 08:18:25;;;;;;;;;;;18.70;68.00;;;;;;5002310;28;19972;-83
2022/08/31 08:20:51;;;;;;;;;;;18.60;68.00;;;;;;4999448;28;19928;-83
2022/08/31 08:23:18;;;;;;;;;;;18.60;68.30;;;;;;4998109;28;19949;-82
2022/08/31 08:25:44;;;;;;;;;;;18.60;68.10;;;;;;4999145;28;20054;-82
2022/08/31 08:28:16;;;;;;;;;;;18.80;67.80;;;;;;4999491;28;20353;-82
2022/08/31 08:30:44;;;;;;;;;;;18.80;67.80;;;;;;4996520;28;19917;-83
2022/08/31 08:33:10;;;;;;;;;;;18.80;68.20;;;;;;4997423;28;19917;-81
2022/08/31 08:35:36;;;;;;;;;;;18.90;67.70;;;;;;4996371;28;19956;-82
2022/08/31 08:38:01;;;;;;;;;;;18.80;68.20;;;;;;5000745;28;19909;-83
2022/08/31 08:40:35;;;;;;;;;;;18.60;68.80;;;;;;4997119;28;19925;-82
2022/08/31 08:43:03;;;;;;;;;;;18.80;69.60;;;;;;4994129;28;19910;-81
2022/08/31 08:45:29;;;;;;;;;;;18.80;69.00;;;;;;4994604;28;19910;-82
2022/08/31 08:47:55;;;;;;;;;;;18.60;70.20;;;;;;4993823;28;19910;-82
2022/08/31 08:50:23;;;;;;;;;;;19.00;68.90;;;;;;4995038;28;20423;-81
2022/08/31 08:52:48;;;;;;;;;;;19.10;68.70;;;;;;4996463;28;21487;-84
2022/08/31 08:55:18;;;;;;;;;;;19.20;68.50;;;;;;4995618;28;19913;-81
2022/08/31 08:57:45;;;;;;;;;;;19.30;68.70;;;;;;4990899;28;19933;-86
2022/08/31 09:00:13;;;;;;;;;;;19.30;69.00;;;;;;4986739;28;20369;-79
2022/08/31 09:02:41;;;;;;;;;;;19.60;67.60;;;;;;4991445;28;19918;-81
2022/08/31 09:05:17;;;;;;;;;;;19.90;66.40;;;;;;4992279;28;19917;-85
2022/08/31 09:08:16;;;;;;;;;;;19.90;66.60;;;;;;4990813;28;19918;-84
2022/08/31 09:11:00;;;;;;;;;;;19.90;66.50;;;;;;4971717;28;20008;-84
2022/08/31 09:13:36;;;;;;;;;;;19.80;67.80;;;;;;4993916;28;19965;-81
2022/08/31 09:16:24;;;;;;;;;;;19.80;67.30;;;;;;4990180;28;19918;-84
2022/08/31 09:19:00;;;;;;;;;;;19.80;67.30;;;;;;4993869;28;20354;-83
2022/08/31 09:21:29;;;;;;;;;;;20.00;67.30;;;;;;4994881;28;19916;-84
2022/08/31 09:24:09;;;;;;;;;;;20.10;66.70;;;;;;4991856;28;19977;-83
2022/08/31 09:26:49;;;;;;;;;;;20.30;66.50;;;;;;4993921;28;19913;-80
2022/08/31 09:29:19;;;;;;;;;;;20.20;66.90;;;;;;4987161;28;20670;-81
2022/08/31 09:31:45;;;;;;;;;;;20.10;67.40;;;;;;4991458;28;20000;-83
2022/08/31 09:34:24;;;;;;;;;;;20.10;67.70;;;;;;4992887;28;19914;-82
2022/08/31 09:36:53;;;;;;;;;;;20.20;67.10;;;;;;4991144;28;20293;-81
2022/08/31 09:39:29;;;;;;;;;;;20.20;67.10;;;;;;4990305;28;19909;-81
2022/08/31 09:41:59;;;;;;;;;;;20.30;66.50;;;;;;4993458;28;19913;-82
2022/08/31 09:44:34;;;;;;;;;;;20.30;66.60;;;;;;4993307;28;19913;-84
2022/08/31 09:47:01;;;;;;;;;;;20.30;66.10;;;;;;4998536;28;19914;-87
2022/08/31 09:49:28;;;;;;;;;;;20.20;66.50;;;;;;4994580;28;19913;-83
2022/08/31 09:52:12;;;;;;;;;;;20.40;66.60;;;;;;4986768;28;19925;-81
2022/08/31 09:57:40;;;;;;;;;;;20.50;65.20;;;;;;4989696;28;19932;-82
2022/08/31 10:00:13;;;;;;;;;;;20.50;66.60;;;;;;4986714;28;19913;-81
2022/08/31 10:02:41;;;;;;;;;;;20.60;65.60;;;;;;4987419;28;19925;-81
2022/08/31 10:05:24;;;;;;;;;;;20.70;65.60;;;;;;4989570;28;19924;-82
2022/08/31 10:07:52;;;;;;;;;;;20.80;65.30;;;;;;4983364;28;19945;-83
2022/08/31 10:10:20;;;;;;;;;;;21.00;65.20;;;;;;4983714;28;20004;-81
2022/08/31 10:12:59;;;;;;;;;;;21.00;64.50;;;;;;4991356;28;20366;-83
2022/08/31 10:15:25;;;;;;;;;;;21.00;65.00;;;;;;4989644;28;19921;-83
2022/08/31 10:17:56;;;;;;;;;;;21.00;64.10;;;;;;4986166;28;19909;-81
2022/08/31 10:20:38;;;;;;;;;;;21.00;64.10;;;;;;4992491;28;20379;-85
2022/08/31 10:23:25;;;;;;;;;;;21.00;63.90;;;;;;4993948;28;20373;-83
2022/08/31 10:25:57;;;;;;;;;;;21.10;63.90;;;;;;4987920;28;20397;-80
2022/08/31 10:28:30;;;;;;;;;;;21.10;64.20;;;;;;4993831;28;20404;-81
2022/08/31 10:30:58;;;;;;;;;;;21.30;63.00;;;;;;4987018;28;20020;-81
2022/08/31 10:35:01;;;;;;;;;;;21.20;64.20;;;;;;5013525;23;19929;-82
2022/08/31 10:36:14;;;;;;;;;;;21.40;62.90;;;;;;4991942;28;19922;-82
2022/08/31 10:38:42;;;;;;;;;;;21.70;61.50;;;;;;4990814;28;19968;-82
2022/08/31 10:41:10;;;;;;;;;;;21.60;62.10;;;;;;4993901;28;19902;-81
2022/08/31 10:43:44;;;;;;;;;;;21.60;62.70;;;;;;5036384;28;20009;-85
2022/08/31 10:46:10;;;;;;;;;;;21.60;61.60;;;;;;5008371;28;19953;-84
2022/08/31 10:48:49;;;;;;;;;;;21.70;61.80;;;;;;5020082;28;20012;-83
2022/08/31 10:51:21;;;;;;;;;;;22.00;61.00;;;;;;5007779;28;20431;-84
2022/08/31 10:54:01;;;;;;;;;;;21.90;61.90;;;;;;5023575;28;19918;-85
2022/08/31 10:56:38;;;;;;;;;;;21.80;61.40;;;;;;4991014;28;20396;-83
2022/08/31 10:59:14;;;;;;;;;;;21.80;61.50;;;;;;4991479;28;19971;-85
2022/08/31 11:01:45;;;;;;;;;;;21.80;61.40;;;;;;5034432;28;20304;-85
2022/08/31 11:04:10;;;;;;;;;;;21.90;61.60;;;;;;4999443;28;19914;-84
2022/08/31 11:06:40;;;;;;;;;;;22.00;62.50;;;;;;5018076;28;20474;-84
2022/08/31 11:09:08;;;;;;;;;;;21.90;61.00;;;;;;4999669;28;19917;-85
2022/08/31 11:11:42;;;;;;;;;;;21.80;61.30;;;;;;5016067;28;19922;-85
2022/08/31 11:14:13;;;;;;;;;;;22.10;60.20;;;;;;4996818;28;19945;-81
2022/08/31 11:16:57;;;;;;;;;;;22.10;59.90;;;;;;5017240;28;20106;-81
2022/08/31 11:19:37;;;;;;;;;;;22.20;59.90;;;;;;5001216;28;19913;-83
2022/08/31 11:22:33;;;;;;;;;;;22.30;60.00;;;;;;5021916;28;19967;-82
2022/08/31 11:25:25;;;;;;;;;;;22.40;59.90;;;;;;4995066;28;20001;-81
2022/08/31 11:27:58;;;;;;;;;;;22.50;58.90;;;;;;4986150;28;19910;-81
2022/08/31 11:30:27;;;;;;;;;;;22.50;58.20;;;;;;4986414;28;19918;-81
2022/08/31 11:32:55;;;;;;;;;;;22.50;58.80;;;;;;5016173;28;20008;-81
2022/08/31 11:35:39;;;;;;;;;;;22.50;58.40;;;;;;4985469;28;19921;-81
2022/08/31 11:38:04;;;;;;;;;;;22.40;58.90;;;;;;4989730;28;19997;-80
2022/08/31 11:40:42;;;;;;;;;;;22.20;59.80;;;;;;4986300;28;19918;-81
2022/08/31 11:43:13;;;;;;;;;;;22.30;59.40;;;;;;4986170;28;19921;-81
2022/08/31 11:45:39;;;;;;;;;;;22.50;59.10;;;;;;4989242;28;20012;-81
2022/08/31 11:48:05;;;;;;;;;;;22.50;59.10;;;;;;4993719;28;21542;-82
2022/08/31 11:50:49;;;;;;;;;;;22.70;58.20;;;;;;4991131;28;20360;-80
2022/08/31 11:53:24;;;;;;;;;;;22.90;58.20;;;;;;5020317;28;19921;-78
2022/08/31 11:55:51;;;;;;;;;;;22.80;58.20;;;;;;5025651;28;19924;-80
2022/08/31 11:58:20;;;;;;;;;;;22.80;58.40;;;;;;4992824;28;19921;-83
2022/08/31 12:00:48;;;;;;;;;;;22.90;57.30;;;;;;4992784;28;19973;-80
2022/08/31 12:03:37;;;;;;;;;;;22.80;58.40;;;;;;5033134;28;20400;-80
2022/08/31 12:06:03;;;;;;;;;;;23.00;58.60;;;;;;5001080;28;19910;-81
2022/08/31 12:08:31;;;;;;;;;;;23.30;56.10;;;;;;5006313;28;19929;-81
2022/08/31 12:11:10;;;;;;;;;;;23.40;55.50;;;;;;5031109;28;19913;-81
2022/08/31 12:13:43;;;;;;;;;;;23.40;56.00;;;;;;5023733;28;19924;-82
2022/08/31 12:16:17;;;;;;;;;;;22.80;56.80;;;;;;5011611;28;19953;-81
2022/08/31 12:18:50;;;;;;;;;;;22.70;58.00;;;;;;5030915;28;19956;-81
2022/08/31 12:24:07;;;;;;;;;;;22.90;56.60;;;;;;5000066;28;20004;-81
2022/08/31 12:26:39;;;;;;;;;;;22.80;57.00;;;;;;5002837;28;19941;-83
2022/08/31 12:29:19;;;;;;;;;;;22.70;56.90;;;;;;4997514;28;19996;-80
2022/08/31 12:32:01;;;;;;;;;;;22.60;57.50;;;;;;4995863;28;19914;-81
2022/08/31 12:34:26;;;;;;;;;;;22.50;57.40;;;;;;4997651;28;19932;-83
2022/08/31 12:36:52;;;;;;;;;;;22.50;56.20;;;;;;5002057;28;20389;-83
2022/08/31 12:39:17;;;;;;;;;;;22.50;57.30;;;;;;5008950;28;19914;-83
2022/08/31 12:41:46;;;;;;;;;;;22.50;57.80;;;;;;5006877;28;20008;-83
2022/08/31 12:44:18;;;;;;;;;;;22.60;56.80;;;;;;4994689;28;19917;-83
2022/08/31 12:46:56;;;;;;;;;;;22.60;56.40;;;;;;5004550;28;19921;-84
2022/08/31 12:49:25;;;;;;;;;;;22.80;56.80;;;;;;4997283;28;20365;-84
2022/08/31 12:51:57;;;;;;;;;;;23.00;57.70;;;;;;5015785;28;19920;-83
2022/08/31 12:54:25;;;;;;;;;;;23.00;55.40;;;;;;4998250;28;19918;-84
2022/08/31 12:56:51;;;;;;;;;;;22.90;55.80;;;;;;5012438;28;19925;-84
2022/08/31 12:59:29;;;;;;;;;;;22.80;56.30;;;;;;4997357;28;19922;-83
2022/08/31 13:01:57;;;;;;;;;;;22.80;56.10;;;;;;5035972;28;19910;-83
2022/08/31 13:04:23;;;;;;;;;;;23.10;56.50;;;;;;5015530;28;19914;-84
2022/08/31 13:06:48;;;;;;;;;;;23.00;55.20;;;;;;5020685;28;19977;-84
2022/08/31 13:09:24;;;;;;;;;;;23.00;55.30;;;;;;5005989;28;19921;-83
2022/08/31 13:11:50;;;;;;;;;;;23.20;55.00;;;;;;5002985;28;19914;-83
2022/08/31 13:14:19;;;;;;;;;;;23.50;53.20;;;;;;4999513;28;20290;-82
2022/08/31 13:16:46;;;;;;;;;;;23.20;54.40;;;;;;5004433;28;19944;-83
2022/08/31 13:19:24;;;;;;;;;;;23.30;53.80;;;;;;5013687;28;19964;-85
2022/08/31 13:22:15;;;;;;;;;;;23.30;54.30;;;;;;5005373;28;20254;-85
2022/08/31 13:24:43;;;;;;;;;;;23.60;52.80;;;;;;4992629;28;19969;-84
2022/08/31 13:27:08;;;;;;;;;;;23.50;53.00;;;;;;4997613;28;19913;-82
2022/08/31 13:29:42;;;;;;;;;;;23.50;52.80;;;;;;5026997;28;20399;-83
2022/08/31 13:32:08;;;;;;;;;;;23.30;53.40;;;;;;5040154;28;19910;-82
2022/08/31 13:34:38;;;;;;;;;;;23.40;53.80;;;;;;5021009;28;19988;-84
2022/08/31 13:37:10;;;;;;;;;;;23.40;54.00;;;;;;5012612;28;19929;-85
2022/08/31 13:39:41;;;;;;;;;;;23.60;53.60;;;;;;5006343;28;19924;-84
2022/08/31 13:42:20;;;;;;;;;;;23.60;52.20;;;;;;5001956;28;19924;-85
2022/08/31 13:44:50;;;;;;;;;;;23.50;51.90;;;;;;5011974;28;20006;-85
2022/08/31 13:47:22;;;;;;;;;;;23.40;51.10;;;;;;5005556;28;19913;-84
2022/08/31 13:49:51;;;;;;;;;;;23.30;52.00;;;;;;5026370;28;19928;-82
2022/08/31 13:52:23;;;;;;;;;;;23.70;51.30;;;;;;5026112;28;19914;-83
2022/08/31 13:54:59;;;;;;;;;;;23.60;51.10;;;;;;5014284;28;19945;-84
2022/08/31 13:57:27;;;;;;;;;;;23.60;51.20;;;;;;5006878;28;19917;-85
2022/08/31 13:59:52;;;;;;;;;;;23.50;50.60;;;;;;5005535;28;20511;-84
2022/08/31 14:02:18;;;;;;;;;;;23.40;50.60;;;;;;4994831;28;19963;-84
2022/08/31 14:04:47;;;;;;;;;;;23.50;51.00;;;;;;5028078;28;19949;-85
2022/08/31 14:07:15;;;;;;;;;;;23.50;50.50;;;;;;5036878;28;19913;-83
2022/08/31 14:09:43;;;;;;;;;;;23.50;50.90;;;;;;5023276;28;19909;-84
2022/08/31 14:12:18;;;;;;;;;;;23.70;49.10;;;;;;5014466;28;20493;-85
2022/08/31 14:14:43;;;;;;;;;;;23.80;50.40;;;;;;5005494;28;19910;-84
2022/08/31 14:17:14;;;;;;;;;;;23.70;50.40;;;;;;4997466;28;19987;-83
2022/08/31 14:19:41;;;;;;;;;;;23.70;49.40;;;;;;5009944;28;19931;-84
2022/08/31 14:22:26;;;;;;;;;;;23.60;49.90;;;;;;5018665;28;20358;-84
2022/08/31 14:24:54;;;;;;;;;;;23.70;50.10;;;;;;5036760;28;20104;-84
2022/08/31 14:27:20;;;;;;;;;;;23.70;50.00;;;;;;5026830;28;19929;-84
2022/08/31 14:29:45;;;;;;;;;;;23.80;49.70;;;;;;5004780;28;20332;-83
2022/08/31 14:32:11;;;;;;;;;;;24.10;48.80;;;;;;5013327;28;19997;-84
2022/08/31 14:34:46;;;;;;;;;;;24.00;48.60;;;;;;4994053;28;19928;-84
2022/08/31 14:37:18;;;;;;;;;;;23.80;49.60;;;;;;4993913;28;20438;-84
2022/08/31 14:39:46;;;;;;;;;;;23.50;50.10;;;;;;4998029;28;19913;-84